createdAt,value
2018-12-11T00:01:17.952Z,9.57
2018-12-11T00:03:46.031Z,8.53
2018-12-11T00:06:14.118Z,5.37
2018-12-11T00:08:42.259Z,12.60
2018-12-11T00:11:10.334Z,13.73
2018-12-11T00:30:58.889Z,7.93
2018-12-11T00:33:26.967Z,10.57
2018-12-11T00:35:55.036Z,5.10
2018-12-11T00:38:23.111Z,5.53
2018-12-11T00:40:51.191Z,9.73
2018-12-11T00:43:19.341Z,8.33
2018-12-11T00:45:47.419Z,6.97
2018-12-11T00:48:15.499Z,11.93
2018-12-11T00:50:43.564Z,6.00
2018-12-11T00:53:11.691Z,7.07
2018-12-11T00:55:39.783Z,9.43
2018-12-11T00:58:07.928Z,9.33
2018-12-11T01:00:36.017Z,10.63
2018-12-11T01:03:04.087Z,11.23
2018-12-11T01:05:32.168Z,12.07
2018-12-11T01:08:00.243Z,7.20
2018-12-11T01:10:28.317Z,6.07
2018-12-11T01:12:56.435Z,8.80
2018-12-11T01:15:24.508Z,7.47
2018-12-11T01:17:52.593Z,7.87
2018-12-11T01:20:20.672Z,8.93
2018-12-11T01:22:48.751Z,17.27
2018-12-11T01:25:16.826Z,7.10
2018-12-11T01:27:44.967Z,6.53
2018-12-11T01:30:13.039Z,8.30
2018-12-11T01:32:41.103Z,6.67
2018-12-11T01:35:09.188Z,5.93
2018-12-11T01:37:37.265Z,6.80
2018-12-11T01:40:05.743Z,8.80
2018-12-11T01:42:33.830Z,10.53
2018-12-11T01:45:01.929Z,4.67
2018-12-11T01:47:30.020Z,5.80
2018-12-11T01:49:58.167Z,8.60
2018-12-11T01:52:26.231Z,9.63
2018-12-11T01:54:54.303Z,4.80
2018-12-11T01:57:22.405Z,6.63
2018-12-11T01:59:50.560Z,8.67
2018-12-11T02:02:18.638Z,8.23
2018-12-11T02:04:46.708Z,9.37
2018-12-11T02:07:14.790Z,6.33
2018-12-11T02:09:42.858Z,4.90
2018-12-11T02:12:11.082Z,9.10
2018-12-11T02:14:39.210Z,5.47
2018-12-11T02:17:07.277Z,5.20
2018-12-11T02:19:35.364Z,7.77
2018-12-11T02:22:03.444Z,7.33
2018-12-11T02:24:31.506Z,6.57
2018-12-11T02:26:59.572Z,7.53
2018-12-11T02:29:27.638Z,5.90
2018-12-11T02:31:55.712Z,4.83
2018-12-11T02:34:23.789Z,11.27
2018-12-11T02:36:51.951Z,6.67
2018-12-11T02:39:20.105Z,12.07
2018-12-11T02:41:48.187Z,10.57
2018-12-11T02:44:16.255Z,5.47
2018-12-11T02:46:44.643Z,5.83
2018-12-11T02:49:12.779Z,7.50
2018-12-11T02:51:40.858Z,6.97
2018-12-11T02:54:08.935Z,6.23
2018-12-11T02:56:37.104Z,8.63
2018-12-11T02:59:05.235Z,4.63
2018-12-11T03:01:33.325Z,7.13
2018-12-11T03:04:01.394Z,5.73
2018-12-11T03:06:29.478Z,4.97
2018-12-11T03:08:57.548Z,11.20
2018-12-11T03:11:25.627Z,5.13
2018-12-11T03:13:53.703Z,6.10
2018-12-11T03:16:21.860Z,9.13
2018-12-11T03:18:49.940Z,5.70
2018-12-11T03:21:18.003Z,6.00
2018-12-11T03:23:46.080Z,8.70
2018-12-11T03:26:14.220Z,5.30
2018-12-11T03:28:42.295Z,7.87
2018-12-11T03:31:10.376Z,5.83
2018-12-11T03:33:38.521Z,6.90
2018-12-11T03:36:06.594Z,4.47
2018-12-11T03:38:34.677Z,6.43
2018-12-11T03:41:02.826Z,6.40
2018-12-11T03:43:30.912Z,4.53
2018-12-11T03:45:58.984Z,5.67
2018-12-11T03:48:27.062Z,6.00
2018-12-11T03:50:55.136Z,8.87
2018-12-11T03:53:23.332Z,7.10
2018-12-11T03:55:51.477Z,4.70
2018-12-11T03:58:19.639Z,7.73
2018-12-11T04:00:47.735Z,3.37
2018-12-11T04:03:15.899Z,6.00
2018-12-11T04:05:43.971Z,6.23
2018-12-11T04:08:12.127Z,5.53
2018-12-11T04:10:40.215Z,7.57
2018-12-11T04:13:08.308Z,11.97
2018-12-11T04:15:36.538Z,6.37
2018-12-11T04:18:04.619Z,6.93
2018-12-11T04:20:32.697Z,9.70
2018-12-11T04:23:00.778Z,8.27
2018-12-11T04:25:28.985Z,9.37
2018-12-11T04:27:57.059Z,9.23
2018-12-11T04:30:25.131Z,8.20
2018-12-11T04:32:53.200Z,8.00
2018-12-11T04:35:21.351Z,9.77
2018-12-11T04:37:49.425Z,7.50
2018-12-11T04:40:17.499Z,9.73
2018-12-11T04:42:45.571Z,8.50
2018-12-11T04:45:13.660Z,12.17
2018-12-11T04:47:41.815Z,5.03
2018-12-11T04:50:09.891Z,8.07
2018-12-11T04:52:37.952Z,6.73
2018-12-11T04:55:06.135Z,7.63
2018-12-11T04:57:34.208Z,7.37
2018-12-11T05:00:07.693Z,6.07
2018-12-11T05:02:35.807Z,6.87
2018-12-11T05:05:04.376Z,13.63
2018-12-11T05:07:32.453Z,8.87
2018-12-11T05:10:00.613Z,12.57
2018-12-11T05:12:28.750Z,9.30
2018-12-11T05:14:56.827Z,10.00
2018-12-11T05:17:24.923Z,10.33
2018-12-11T05:19:53.015Z,5.57
2018-12-11T05:22:21.085Z,13.33
2018-12-11T05:24:49.175Z,6.60
2018-12-11T05:27:17.252Z,13.20
2018-12-11T05:29:45.329Z,9.87
2018-12-11T05:32:13.495Z,10.77
2018-12-11T05:34:41.658Z,13.23
2018-12-11T05:37:09.853Z,9.03
2018-12-11T05:39:37.924Z,22.10
2018-12-11T05:42:05.987Z,8.47
2018-12-11T05:44:34.528Z,9.30
2018-12-11T05:47:02.598Z,9.07
2018-12-11T05:49:30.910Z,7.50
2018-12-11T05:51:59.060Z,11.00
2018-12-11T05:54:27.223Z,9.77
2018-12-11T05:56:55.383Z,6.97
2018-12-11T05:59:23.498Z,9.27
2018-12-11T06:01:51.577Z,8.87
2018-12-11T06:04:20.697Z,7.33
2018-12-11T06:06:48.783Z,6.87
2018-12-11T06:09:16.860Z,6.53
2018-12-11T06:11:44.935Z,4.90
2018-12-11T06:14:13.008Z,7.20
2018-12-11T06:16:41.677Z,8.93
2018-12-11T06:19:09.836Z,10.63
2018-12-11T06:21:37.931Z,7.13
2018-12-11T06:24:06.028Z,8.57
2018-12-11T06:26:34.099Z,6.87
2018-12-11T06:29:02.207Z,6.33
2018-12-11T06:31:30.363Z,6.47
2018-12-11T06:34:19.047Z,8.03
2018-12-11T06:36:47.128Z,11.17
2018-12-11T06:39:17.332Z,4.23
2018-12-11T06:41:45.408Z,6.57
2018-12-11T06:44:13.488Z,9.67
2018-12-11T06:46:41.629Z,7.30
2018-12-11T06:49:09.699Z,6.07
2018-12-11T06:51:37.900Z,6.17
2018-12-11T06:54:05.963Z,4.83
2018-12-11T06:56:34.043Z,5.23
2018-12-11T06:59:02.118Z,7.37
2018-12-11T07:01:30.198Z,6.20
2018-12-11T07:03:59.062Z,6.50
2018-12-11T07:06:27.148Z,4.53
2018-12-11T07:08:56.222Z,3.93
2018-12-11T07:11:30.166Z,6.10
2018-12-11T07:13:58.247Z,4.50
2018-12-11T07:16:26.319Z,3.90
2018-12-11T07:18:54.471Z,4.57
2018-12-11T07:21:22.515Z,5.93
2018-12-11T07:23:50.616Z,7.47
2018-12-11T07:26:18.698Z,7.77
2018-12-11T07:28:46.857Z,4.27
2018-12-11T07:31:14.943Z,5.27
2018-12-11T07:33:43.210Z,4.97
2018-12-11T07:36:11.289Z,4.57
2018-12-11T07:38:39.471Z,4.47
2018-12-11T07:41:07.732Z,6.17
2018-12-11T07:43:35.807Z,9.40
2018-12-11T07:46:03.884Z,7.63
2018-12-11T07:48:31.960Z,7.10
2018-12-11T07:51:00.068Z,9.20
2018-12-11T07:53:28.131Z,10.17
2018-12-11T07:56:00.226Z,5.57
2018-12-11T07:58:26.414Z,5.73
2018-12-11T08:00:59.273Z,9.27
2018-12-11T08:03:27.354Z,7.37
2018-12-11T08:05:55.519Z,8.37
2018-12-11T08:08:24.014Z,7.00
2018-12-11T08:10:52.080Z,6.83
2018-12-11T08:13:20.353Z,6.20
2018-12-11T08:15:48.502Z,6.27
2018-12-11T08:18:16.676Z,7.53
2018-12-11T08:20:44.754Z,10.53
2018-12-11T08:23:12.834Z,11.13
2018-12-11T08:25:42.151Z,3.90
2018-12-11T08:28:10.305Z,9.30
2018-12-11T08:30:38.381Z,10.80
2018-12-11T08:33:19.885Z,7.57
2018-12-11T08:35:47.950Z,5.13
2018-12-11T08:38:16.111Z,5.07
2018-12-11T08:40:44.187Z,4.20
2018-12-11T08:43:14.413Z,3.70
2018-12-11T08:45:42.477Z,3.87
2018-12-11T08:48:10.563Z,4.83
2018-12-11T08:50:38.844Z,5.23
2018-12-11T08:53:06.916Z,5.40
2018-12-11T08:55:35.073Z,2.53
2018-12-11T08:58:03.153Z,3.47
2018-12-11T09:00:31.219Z,4.97
2018-12-11T09:02:59.294Z,1.40
2018-12-11T09:05:27.480Z,3.27
2018-12-11T09:07:55.687Z,3.80
2018-12-11T09:10:23.756Z,2.37
2018-12-11T09:12:51.853Z,3.00
2018-12-11T09:15:19.956Z,0.70
2018-12-11T09:17:48.033Z,1.97
2018-12-11T09:20:16.227Z,1.80
2018-12-11T09:22:44.299Z,1.50
2018-12-11T09:25:23.170Z,1.57
2018-12-11T09:27:51.316Z,1.03
2018-12-11T09:30:19.461Z,2.43
2018-12-11T09:32:47.544Z,2.27
2018-12-11T09:35:15.627Z,2.57
2018-12-11T09:37:43.707Z,2.27
2018-12-11T09:40:11.784Z,2.00
2018-12-11T09:42:44.548Z,3.77
2018-12-11T09:45:12.624Z,4.00
2018-12-11T09:47:40.779Z,3.70
2018-12-11T09:50:09.979Z,3.60
2018-12-11T09:52:38.058Z,5.50
2018-12-11T09:55:06.172Z,3.13
2018-12-11T09:57:34.263Z,2.10
2018-12-11T10:00:10.523Z,3.23
2018-12-11T10:02:38.686Z,3.60
2018-12-11T10:05:06.767Z,3.33
2018-12-11T10:07:34.855Z,4.03
2018-12-11T10:10:02.938Z,4.13
2018-12-11T10:12:35.134Z,3.53
2018-12-11T10:15:03.231Z,2.63
2018-12-11T10:17:32.502Z,2.90
2018-12-11T10:20:00.659Z,2.80
2018-12-11T10:22:28.747Z,3.67
2018-12-11T10:24:56.834Z,2.90
2018-12-11T10:27:24.927Z,3.40
2018-12-11T10:29:53.034Z,2.17
2018-12-11T10:32:21.120Z,3.13
2018-12-11T10:34:49.211Z,3.73
2018-12-11T10:37:20.561Z,2.23
2018-12-11T10:39:48.667Z,2.10
2018-12-11T10:42:16.737Z,1.60
2018-12-11T10:44:44.820Z,4.33
2018-12-11T10:47:13.031Z,2.27
2018-12-11T10:49:41.116Z,5.03
2018-12-11T10:52:09.223Z,2.13
2018-12-11T10:54:48.274Z,3.90
2018-12-11T10:57:16.371Z,2.30
2018-12-11T10:59:44.444Z,2.63
2018-12-11T11:02:17.907Z,1.87
2018-12-11T11:04:45.979Z,1.80
2018-12-11T11:07:14.136Z,4.17
2018-12-11T11:09:42.711Z,8.20
2018-12-11T11:12:10.780Z,2.83
2018-12-11T11:14:40.895Z,2.67
2018-12-11T11:17:08.994Z,2.57
2018-12-11T11:19:37.055Z,3.23
2018-12-11T11:22:05.130Z,4.50
2018-12-11T11:24:33.483Z,3.20
2018-12-11T11:27:01.666Z,2.90
2018-12-11T11:29:29.739Z,5.03
2018-12-11T11:31:57.889Z,3.27
2018-12-11T11:34:26.043Z,4.40
2018-12-11T11:36:54.115Z,4.33
2018-12-11T11:39:22.200Z,3.97
2018-12-11T11:41:50.388Z,5.90
2018-12-11T11:44:18.471Z,5.93
2018-12-11T11:46:46.546Z,4.70
2018-12-11T11:49:14.776Z,4.90
2018-12-11T11:51:42.979Z,3.27
2018-12-11T11:54:11.048Z,6.60
2018-12-11T11:56:39.120Z,6.93
2018-12-11T11:59:07.271Z,6.37
2018-12-11T12:01:35.336Z,8.03
2018-12-11T12:04:03.416Z,2.70
2018-12-11T12:06:31.525Z,7.57
2018-12-11T12:08:59.627Z,3.70
2018-12-11T12:11:27.702Z,6.73
2018-12-11T12:13:55.783Z,3.47
2018-12-11T12:16:25.953Z,4.93
2018-12-11T12:18:54.037Z,4.70
2018-12-11T12:21:22.108Z,4.63
2018-12-11T12:23:50.269Z,5.30
2018-12-11T12:26:18.412Z,2.83
2018-12-11T12:28:46.548Z,6.57
2018-12-11T12:31:16.210Z,10.37
2018-12-11T12:33:44.303Z,3.10
2018-12-11T12:36:12.396Z,5.20
2018-12-11T12:38:41.119Z,3.90
2018-12-11T12:41:10.275Z,4.50
2018-12-11T12:43:38.340Z,3.83
2018-12-11T12:46:06.412Z,3.07
2018-12-11T12:48:34.482Z,5.10
2018-12-11T12:51:02.783Z,3.50
2018-12-11T12:53:30.844Z,6.40
2018-12-11T12:56:00.953Z,4.90
2018-12-11T12:58:29.031Z,3.00
2018-12-11T13:00:57.675Z,6.63
2018-12-11T13:03:26.258Z,4.23
2018-12-11T13:05:55.131Z,3.83
2018-12-11T13:08:24.447Z,3.07
2018-12-11T13:10:52.507Z,2.90
2018-12-11T13:13:20.560Z,2.70
2018-12-11T13:15:48.631Z,6.17
2018-12-11T13:18:16.737Z,2.90
2018-12-11T13:20:44.919Z,2.87
2018-12-11T13:23:13.009Z,3.97
2018-12-11T13:25:41.103Z,3.03
2018-12-11T13:28:09.195Z,2.77
2018-12-11T13:30:37.267Z,3.80
2018-12-11T13:33:05.347Z,3.53
2018-12-11T13:35:33.591Z,1.80
2018-12-11T13:38:01.672Z,1.97
2018-12-11T13:40:29.984Z,6.40
2018-12-11T13:42:58.176Z,2.47
2018-12-11T13:45:26.259Z,1.93
2018-12-11T13:47:54.460Z,1.03
2018-12-11T13:50:22.607Z,1.10
2018-12-11T13:52:50.727Z,1.07
2018-12-11T13:55:19.929Z,2.10
2018-12-11T13:57:48.215Z,1.10
2018-12-11T14:00:16.555Z,1.60
2018-12-11T14:02:44.805Z,1.43
2018-12-11T14:05:14.218Z,2.43
2018-12-11T14:07:42.558Z,1.87
2018-12-11T14:10:12.886Z,3.83
2018-12-11T14:12:42.051Z,2.47
2018-12-11T14:15:10.219Z,4.33
2018-12-11T14:17:38.291Z,5.33
2018-12-11T14:20:06.981Z,3.77
2018-12-11T14:22:35.048Z,5.47
2018-12-11T14:25:05.218Z,8.07
2018-12-11T14:27:33.294Z,9.30
2018-12-11T14:30:03.648Z,5.77
2018-12-11T14:32:31.736Z,3.27
2018-12-11T14:34:59.908Z,2.97
2018-12-11T14:37:27.986Z,10.23
2018-12-11T14:39:56.265Z,9.97
2018-12-11T14:42:24.340Z,14.83
2018-12-11T14:44:56.424Z,31.83
2018-12-11T14:47:24.491Z,6.63
2018-12-11T14:49:52.571Z,13.83
2018-12-11T14:52:20.671Z,6.57
2018-12-11T14:54:48.727Z,7.40
2018-12-11T14:57:22.611Z,6.53
2018-12-11T14:59:50.761Z,9.67
2018-12-11T15:02:18.844Z,4.80
2018-12-11T15:04:46.916Z,7.90
2018-12-11T15:07:16.107Z,7.37
2018-12-11T15:09:51.201Z,10.47
2018-12-11T15:12:19.287Z,3.67
2018-12-11T15:14:47.523Z,3.70
2018-12-11T15:17:15.716Z,4.67
2018-12-11T15:19:43.818Z,5.50
2018-12-11T15:22:15.155Z,7.47
2018-12-11T15:24:43.228Z,5.53
2018-12-11T15:27:13.507Z,3.60
2018-12-11T15:29:41.819Z,2.63
2018-12-11T15:32:09.954Z,6.73
2018-12-11T15:34:38.031Z,4.83
2018-12-11T15:37:12.101Z,5.80
2018-12-11T15:39:40.164Z,8.03
2018-12-11T15:42:08.319Z,3.47
2018-12-11T15:44:36.384Z,4.23
2018-12-11T15:47:04.614Z,3.17
2018-12-11T15:49:32.681Z,5.40
2018-12-11T15:52:00.773Z,2.90
2018-12-11T15:54:28.844Z,3.70
2018-12-11T15:56:57.376Z,3.57
2018-12-11T15:59:25.451Z,3.80
2018-12-11T16:01:53.559Z,4.47
2018-12-11T16:04:21.625Z,4.37
2018-12-11T16:06:49.819Z,9.57
2018-12-11T16:09:19.851Z,5.73
2018-12-11T16:11:47.933Z,4.37
2018-12-11T16:14:18.010Z,6.43
2018-12-11T16:16:46.329Z,8.37
2018-12-11T16:19:14.440Z,5.77
2018-12-11T16:21:43.451Z,11.23
2018-12-11T16:24:11.533Z,17.53
2018-12-11T16:26:39.737Z,9.20
2018-12-11T16:29:11.893Z,5.30
2018-12-11T16:31:39.963Z,7.13
2018-12-11T16:37:04.502Z,5.97
2018-12-11T16:39:32.903Z,6.10
2018-12-11T16:42:01.062Z,6.87
2018-12-11T16:44:30.358Z,5.50
2018-12-11T16:46:58.508Z,7.53
2018-12-11T16:49:26.567Z,5.37
2018-12-11T16:51:56.679Z,4.80
2018-12-11T16:54:24.824Z,5.97
2018-12-11T16:56:53.969Z,4.73
2018-12-11T16:59:22.056Z,5.50
2018-12-11T17:01:55.724Z,5.80
2018-12-11T17:04:44.805Z,7.43
2018-12-11T17:07:13.282Z,8.87
2018-12-11T17:09:42.879Z,6.50
2018-12-11T17:12:12.044Z,14.07
2018-12-11T17:14:40.118Z,13.67
2018-12-11T17:17:12.439Z,10.90
2018-12-11T17:19:40.507Z,11.07
2018-12-11T17:22:13.023Z,15.70
2018-12-11T17:24:41.099Z,12.67
2018-12-11T17:27:09.173Z,13.13
2018-12-11T17:29:37.256Z,15.70
2018-12-11T17:32:12.114Z,20.47
2018-12-11T17:34:40.241Z,12.90
2018-12-11T17:37:08.404Z,23.83
2018-12-11T17:39:36.523Z,21.37
2018-12-11T17:42:04.712Z,22.53
2018-12-11T17:44:32.791Z,28.57
2018-12-11T17:47:14.507Z,38.37
2018-12-11T17:49:42.660Z,27.37
2018-12-11T17:52:10.815Z,19.57
2018-12-11T17:54:38.893Z,12.10
2018-12-11T17:57:07.043Z,10.43
2018-12-11T17:59:35.305Z,10.93
2018-12-11T18:02:06.471Z,11.67
2018-12-11T18:04:35.243Z,10.90
2018-12-11T18:07:03.587Z,10.63
2018-12-11T18:09:33.181Z,13.90
2018-12-11T18:12:02.391Z,11.17
2018-12-11T18:14:30.535Z,12.27
2018-12-11T18:16:59.787Z,12.20
2018-12-11T18:19:27.882Z,10.13
2018-12-11T18:21:59.189Z,9.23
2018-12-11T18:24:27.327Z,10.90
2018-12-11T18:26:55.438Z,14.87
2018-12-11T18:29:23.583Z,7.57
2018-12-11T18:31:51.811Z,16.03
2018-12-11T18:34:20.263Z,8.67
2018-12-11T18:36:48.718Z,11.37
2018-12-11T18:39:16.835Z,10.73
2018-12-11T18:41:46.019Z,13.50
2018-12-11T18:44:14.123Z,9.83
2018-12-11T18:46:42.258Z,8.83
2018-12-11T18:49:10.320Z,9.60
2018-12-11T18:51:38.459Z,7.47
2018-12-11T18:54:07.582Z,9.53
2018-12-11T18:56:35.636Z,9.77
2018-12-11T18:59:03.732Z,7.57
2018-12-11T19:01:33.855Z,7.40
2018-12-11T19:04:01.947Z,10.33
2018-12-11T19:06:30.073Z,6.37
2018-12-11T19:08:58.143Z,8.27
2018-12-11T19:11:26.199Z,14.00
2018-12-11T19:13:54.603Z,12.73
2018-12-11T19:16:22.728Z,14.20
2018-12-11T19:18:50.836Z,11.23
2018-12-11T19:21:18.941Z,9.97
2018-12-11T19:23:56.883Z,10.93
2018-12-11T19:26:25.534Z,9.40
2018-12-11T19:28:53.710Z,8.90
2018-12-11T19:31:21.885Z,7.87
2018-12-11T19:33:49.952Z,10.10
2018-12-11T19:36:18.043Z,9.70
2018-12-11T19:38:46.136Z,9.87
2018-12-11T19:41:14.234Z,8.10
2018-12-11T19:43:42.293Z,10.83
2018-12-11T19:46:10.428Z,7.67
2018-12-11T19:48:38.579Z,10.43
2018-12-11T19:51:06.680Z,8.30
2018-12-11T19:53:34.796Z,7.07
2018-12-11T19:56:02.994Z,9.03
2018-12-11T19:58:31.091Z,8.60
2018-12-11T20:00:59.480Z,6.50
2018-12-11T20:03:27.549Z,8.87
2018-12-11T20:05:55.641Z,7.07
2018-12-11T20:08:23.752Z,10.23
2018-12-11T20:10:53.887Z,9.57
2018-12-11T20:13:22.096Z,11.33
2018-12-11T20:15:50.304Z,7.50
2018-12-11T20:18:18.439Z,11.10
2018-12-11T20:20:47.667Z,7.23
2018-12-11T20:23:15.816Z,8.67
2018-12-11T20:25:43.957Z,6.53
2018-12-11T20:28:12.037Z,7.97
2018-12-11T20:30:40.281Z,11.43
2018-12-11T20:33:09.264Z,7.17
2018-12-11T20:35:37.470Z,6.73
2018-12-11T20:38:07.113Z,8.43
2018-12-11T20:40:35.841Z,10.00
2018-12-11T20:43:04.330Z,8.40
2018-12-11T20:45:33.715Z,10.20
2018-12-11T20:48:03.078Z,12.50
2018-12-11T20:50:31.267Z,45.13
2018-12-11T20:52:59.471Z,14.43
2018-12-11T20:55:27.625Z,10.37
2018-12-11T20:57:57.172Z,14.07
2018-12-11T21:00:25.303Z,11.60
2018-12-11T21:02:53.621Z,13.13
2018-12-11T21:05:22.117Z,13.87
2018-12-11T21:07:50.557Z,11.83
2018-12-11T21:10:18.624Z,14.53
2018-12-11T21:12:46.806Z,15.37
2018-12-11T21:15:14.985Z,19.43
2018-12-11T21:17:43.063Z,12.37
2018-12-11T21:20:11.196Z,13.83
2018-12-11T21:22:39.278Z,12.77
2018-12-11T21:25:07.631Z,17.93
2018-12-11T21:27:35.847Z,15.17
2018-12-11T21:30:05.344Z,13.37
2018-12-11T21:32:33.488Z,12.23
2018-12-11T21:54:47.434Z,14.17
2018-12-11T21:57:15.532Z,12.80
2018-12-11T21:59:43.582Z,12.88
2018-12-11T22:02:12.479Z,14.00
2018-12-11T22:04:42.314Z,13.68
2018-12-11T22:07:10.680Z,13.57
2018-12-11T22:09:38.960Z,16.10
2018-12-11T22:29:47.990Z,15.90
2018-12-11T22:32:17.643Z,19.13
2018-12-11T22:34:46.892Z,19.17
2018-12-11T22:37:15.808Z,20.00
2018-12-11T22:39:45.130Z,21.60
2018-12-11T22:42:15.500Z,17.83
2018-12-11T22:44:46.238Z,18.67
2018-12-11T22:47:16.239Z,17.32
2018-12-11T23:08:00.624Z,20.10
2018-12-11T23:10:29.064Z,16.23
2018-12-11T23:12:57.451Z,22.67
2018-12-11T23:15:26.777Z,20.67
2018-12-11T23:17:55.147Z,20.37
2018-12-11T23:20:23.954Z,13.40
2018-12-11T23:22:53.430Z,17.43
2018-12-11T23:25:21.581Z,18.47
2018-12-11T23:27:50.280Z,21.30
2018-12-11T23:30:18.553Z,20.77
2018-12-11T23:32:47.080Z,20.57
2018-12-11T23:52:35.972Z,18.63
2018-12-11T23:55:05.032Z,21.40
2018-12-11T23:57:33.440Z,25.23
